sensor_id;sensor_type;location;lat;lon;timestamp;P1;durP1;ratioP1;P2;durP2;ratioP2
24084;SDS011;12268;52.110;5.548;2023-04-01T00:00:27;23.73;;;10.50;;
24084;SDS011;12268;52.110;5.548;2023-04-01T00:02:53;19.17;;;11.57;;
24084;SDS011;12268;52.110;5.548;2023-04-01T00:05:19;19.48;;;10.00;;
24084;SDS011;12268;52.110;5.548;2023-04-01T00:07:44;22.65;;;11.48;;
24084;SDS011;12268;52.110;5.548;2023-04-01T00:10:11;20.70;;;10.00;;
24084;SDS011;12268;52.110;5.548;2023-04-01T00:12:38;21.55;;;12.15;;
24084;SDS011;12268;52.110;5.548;2023-04-01T00:15:05;24.58;;;11.50;;
24084;SDS011;12268;52.110;5.548;2023-04-01T00:17:32;23.52;;;10.73;;
24084;SDS011;12268;52.110;5.548;2023-04-01T00:19:59;24.67;;;11.90;;
24084;SDS011;12268;52.110;5.548;2023-04-01T00:22:24;32.17;;;11.88;;
24084;SDS011;12268;52.110;5.548;2023-04-01T00:24:51;30.98;;;12.95;;
24084;SDS011;12268;52.110;5.548;2023-04-01T00:27:17;28.90;;;13.73;;
24084;SDS011;12268;52.110;5.548;2023-04-01T00:29:43;25.02;;;12.38;;
24084;SDS011;12268;52.110;5.548;2023-04-01T00:32:10;30.02;;;11.98;;
24084;SDS011;12268;52.110;5.548;2023-04-01T00:34:35;29.42;;;12.75;;
24084;SDS011;12268;52.110;5.548;2023-04-01T00:37:01;29.90;;;11.90;;
24084;SDS011;12268;52.110;5.548;2023-04-01T00:39:31;28.50;;;11.85;;
24084;SDS011;12268;52.110;5.548;2023-04-01T00:41:57;35.75;;;13.82;;
24084;SDS011;12268;52.110;5.548;2023-04-01T00:44:25;29.20;;;11.68;;
24084;SDS011;12268;52.110;5.548;2023-04-01T00:46:52;29.33;;;11.27;;
24084;SDS011;12268;52.110;5.548;2023-04-01T00:49:19;30.70;;;14.00;;
24084;SDS011;12268;52.110;5.548;2023-04-01T00:51:48;37.10;;;14.70;;
24084;SDS011;12268;52.110;5.548;2023-04-01T00:54:17;41.58;;;15.85;;
24084;SDS011;12268;52.110;5.548;2023-04-01T00:56:50;45.95;;;15.38;;
24084;SDS011;12268;52.110;5.548;2023-04-01T00:59:31;37.10;;;15.05;;
24084;SDS011;12268;52.110;5.548;2023-04-01T01:02:05;47.42;;;16.27;;
24084;SDS011;12268;52.110;5.548;2023-04-01T01:04:34;43.67;;;17.23;;
24084;SDS011;12268;52.110;5.548;2023-04-01T01:15:49;44.53;;;18.35;;
24084;SDS011;12268;52.110;5.548;2023-04-01T01:26:57;58.30;;;20.25;;
24084;SDS011;12268;52.110;5.548;2023-04-01T01:32:25;55.10;;;19.52;;
24084;SDS011;12268;52.110;5.548;2023-04-01T01:35:04;49.42;;;19.27;;
24084;SDS011;12268;52.110;5.548;2023-04-01T01:37:36;48.33;;;16.52;;
24084;SDS011;12268;52.110;5.548;2023-04-01T01:40:05;48.50;;;19.23;;
24084;SDS011;12268;52.110;5.548;2023-04-01T01:42:33;45.28;;;18.08;;
24084;SDS011;12268;52.110;5.548;2023-04-01T01:45:02;44.67;;;17.15;;
24084;SDS011;12268;52.110;5.548;2023-04-01T01:47:30;44.10;;;15.10;;
24084;SDS011;12268;52.110;5.548;2023-04-01T01:49:58;51.88;;;17.75;;
24084;SDS011;12268;52.110;5.548;2023-04-01T01:52:26;48.17;;;16.75;;
24084;SDS011;12268;52.110;5.548;2023-04-01T01:54:53;37.22;;;14.25;;
24084;SDS011;12268;52.110;5.548;2023-04-01T01:57:23;33.30;;;14.15;;
24084;SDS011;12268;52.110;5.548;2023-04-01T01:59:54;35.38;;;15.80;;
24084;SDS011;12268;52.110;5.548;2023-04-01T02:02:23;45.67;;;15.35;;
24084;SDS011;12268;52.110;5.548;2023-04-01T02:04:50;38.35;;;15.95;;
24084;SDS011;12268;52.110;5.548;2023-04-01T02:07:21;42.50;;;16.70;;
24084;SDS011;12268;52.110;5.548;2023-04-01T04:20:13;30.10;;;11.75;;
24084;SDS011;12268;52.110;5.548;2023-04-01T04:22:38;29.48;;;11.90;;
24084;SDS011;12268;52.110;5.548;2023-04-01T04:25:04;29.75;;;12.35;;
24084;SDS011;12268;52.110;5.548;2023-04-01T04:27:30;35.75;;;14.13;;
24084;SDS011;12268;52.110;5.548;2023-04-01T04:29:56;34.72;;;13.57;;
24084;SDS011;12268;52.110;5.548;2023-04-01T04:32:21;35.42;;;13.60;;
24084;SDS011;12268;52.110;5.548;2023-04-01T04:34:47;33.00;;;13.38;;
24084;SDS011;12268;52.110;5.548;2023-04-01T04:37:12;33.35;;;12.52;;
24084;SDS011;12268;52.110;5.548;2023-04-01T04:39:38;33.15;;;12.40;;
24084;SDS011;12268;52.110;5.548;2023-04-01T04:42:03;34.53;;;11.90;;
24084;SDS011;12268;52.110;5.548;2023-04-01T04:44:30;28.08;;;12.57;;
24084;SDS011;12268;52.110;5.548;2023-04-01T04:46:55;30.48;;;11.57;;
24084;SDS011;12268;52.110;5.548;2023-04-01T04:49:21;36.42;;;12.55;;
24084;SDS011;12268;52.110;5.548;2023-04-01T04:51:46;36.58;;;12.63;;
24084;SDS011;12268;52.110;5.548;2023-04-01T04:54:12;39.00;;;13.63;;
24084;SDS011;12268;52.110;5.548;2023-04-01T04:56:37;37.33;;;13.85;;
24084;SDS011;12268;52.110;5.548;2023-04-01T04:59:03;47.97;;;13.43;;
24084;SDS011;12268;52.110;5.548;2023-04-01T05:01:28;42.17;;;14.35;;
24084;SDS011;12268;52.110;5.548;2023-04-01T05:03:54;46.58;;;15.02;;
24084;SDS011;12268;52.110;5.548;2023-04-01T05:06:20;42.95;;;14.48;;
24084;SDS011;12268;52.110;5.548;2023-04-01T05:08:46;41.70;;;14.15;;
24084;SDS011;12268;52.110;5.548;2023-04-01T05:11:13;44.35;;;13.95;;
24084;SDS011;12268;52.110;5.548;2023-04-01T05:13:40;42.22;;;13.20;;
24084;SDS011;12268;52.110;5.548;2023-04-01T05:16:13;41.95;;;12.45;;
24084;SDS011;12268;52.110;5.548;2023-04-01T05:18:41;36.85;;;12.18;;
24084;SDS011;12268;52.110;5.548;2023-04-01T05:21:07;38.03;;;12.27;;
24084;SDS011;12268;52.110;5.548;2023-04-01T05:23:34;40.33;;;12.10;;
24084;SDS011;12268;52.110;5.548;2023-04-01T05:26:04;45.08;;;12.55;;
24084;SDS011;12268;52.110;5.548;2023-04-01T05:28:30;70.63;;;14.80;;
24084;SDS011;12268;52.110;5.548;2023-04-01T05:30:58;51.38;;;13.27;;
24084;SDS011;12268;52.110;5.548;2023-04-01T05:33:24;40.13;;;11.57;;
24084;SDS011;12268;52.110;5.548;2023-04-01T05:35:50;43.05;;;11.32;;
24084;SDS011;12268;52.110;5.548;2023-04-01T05:38:15;35.13;;;10.75;;
24084;SDS011;12268;52.110;5.548;2023-04-01T05:40:41;42.75;;;11.40;;
24084;SDS011;12268;52.110;5.548;2023-04-01T05:43:07;36.67;;;10.27;;
24084;SDS011;12268;52.110;5.548;2023-04-01T05:45:32;40.97;;;10.30;;
24084;SDS011;12268;52.110;5.548;2023-04-01T05:47:58;29.02;;;8.85;;
24084;SDS011;12268;52.110;5.548;2023-04-01T05:50:24;30.13;;;7.72;;
24084;SDS011;12268;52.110;5.548;2023-04-01T05:52:49;32.03;;;7.65;;
24084;SDS011;12268;52.110;5.548;2023-04-01T05:55:15;25.58;;;7.43;;
24084;SDS011;12268;52.110;5.548;2023-04-01T05:57:41;22.95;;;7.10;;
24084;SDS011;12268;52.110;5.548;2023-04-01T06:00:06;23.08;;;7.95;;
24084;SDS011;12268;52.110;5.548;2023-04-01T06:02:32;17.63;;;6.15;;
24084;SDS011;12268;52.110;5.548;2023-04-01T06:07:36;18.17;;;6.78;;
24084;SDS011;12268;52.110;5.548;2023-04-01T06:10:05;16.45;;;6.07;;
24084;SDS011;12268;52.110;5.548;2023-04-01T06:15:20;18.25;;;5.55;;
24084;SDS011;12268;52.110;5.548;2023-04-01T06:18:29;14.60;;;5.65;;
24084;SDS011;12268;52.110;5.548;2023-04-01T06:26:30;12.48;;;4.57;;
24084;SDS011;12268;52.110;5.548;2023-04-01T06:32:10;15.27;;;5.18;;
24084;SDS011;12268;52.110;5.548;2023-04-01T06:43:35;15.75;;;5.55;;
24084;SDS011;12268;52.110;5.548;2023-04-01T06:51:20;18.85;;;6.20;;
24084;SDS011;12268;52.110;5.548;2023-04-01T06:54:09;22.55;;;6.57;;
24084;SDS011;12268;52.110;5.548;2023-04-01T06:56:40;16.55;;;5.90;;
24084;SDS011;12268;52.110;5.548;2023-04-01T06:59:27;15.30;;;5.45;;
24084;SDS011;12268;52.110;5.548;2023-04-01T07:01:55;16.95;;;5.40;;
24084;SDS011;12268;52.110;5.548;2023-04-01T07:04:33;15.95;;;5.35;;
24084;SDS011;12268;52.110;5.548;2023-04-01T07:09:54;13.02;;;5.10;;
24084;SDS011;12268;52.110;5.548;2023-04-01T07:14:56;7.07;;;2.33;;
24084;SDS011;12268;52.110;5.548;2023-04-01T07:17:30;4.70;;;2.13;;
24084;SDS011;12268;52.110;5.548;2023-04-01T07:20:05;3.90;;;1.90;;
24084;SDS011;12268;52.110;5.548;2023-04-01T07:22:48;4.97;;;1.92;;
24084;SDS011;12268;52.110;5.548;2023-04-01T07:25:20;6.65;;;2.03;;
24084;SDS011;12268;52.110;5.548;2023-04-01T07:27:52;5.78;;;2.38;;
24084;SDS011;12268;52.110;5.548;2023-04-01T07:30:22;9.23;;;3.50;;
24084;SDS011;12268;52.110;5.548;2023-04-01T07:33:11;9.30;;;3.80;;
24084;SDS011;12268;52.110;5.548;2023-04-01T07:35:52;10.82;;;4.13;;
24084;SDS011;12268;52.110;5.548;2023-04-01T07:38:32;11.80;;;4.47;;
24084;SDS011;12268;52.110;5.548;2023-04-01T08:12:04;11.50;;;4.60;;
24084;SDS011;12268;52.110;5.548;2023-04-01T08:20:55;10.52;;;4.97;;
24084;SDS011;12268;52.110;5.548;2023-04-01T08:23:28;16.15;;;6.63;;
24084;SDS011;12268;52.110;5.548;2023-04-01T08:26:04;16.35;;;5.80;;
24084;SDS011;12268;52.110;5.548;2023-04-01T08:28:41;20.50;;;7.18;;
24084;SDS011;12268;52.110;5.548;2023-04-01T08:31:16;19.55;;;6.68;;
24084;SDS011;12268;52.110;5.548;2023-04-01T08:33:50;18.38;;;6.65;;
24084;SDS011;12268;52.110;5.548;2023-04-01T08:36:20;19.05;;;7.57;;
24084;SDS011;12268;52.110;5.548;2023-04-01T08:38:54;20.85;;;7.95;;
24084;SDS011;12268;52.110;5.548;2023-04-01T08:43:56;23.48;;;8.05;;
24084;SDS011;12268;52.110;5.548;2023-04-01T08:49:50;18.33;;;7.05;;
24084;SDS011;12268;52.110;5.548;2023-04-01T08:52:25;20.25;;;7.88;;
24084;SDS011;12268;52.110;5.548;2023-04-01T08:58:04;25.23;;;8.90;;
24084;SDS011;12268;52.110;5.548;2023-04-01T09:01:02;20.17;;;8.38;;
24084;SDS011;12268;52.110;5.548;2023-04-01T09:11:59;25.70;;;9.95;;
24084;SDS011;12268;52.110;5.548;2023-04-01T09:34:19;24.23;;;9.98;;
24084;SDS011;12268;52.110;5.548;2023-04-01T09:37:13;26.63;;;9.48;;
24084;SDS011;12268;52.110;5.548;2023-04-01T09:45:53;24.02;;;9.80;;
24084;SDS011;12268;52.110;5.548;2023-04-01T09:51:22;21.15;;;9.75;;
24084;SDS011;12268;52.110;5.548;2023-04-01T09:54:13;26.23;;;11.00;;
24084;SDS011;12268;52.110;5.548;2023-04-01T10:02:27;24.08;;;10.88;;
24084;SDS011;12268;52.110;5.548;2023-04-01T10:08:01;20.05;;;9.55;;
24084;SDS011;12268;52.110;5.548;2023-04-01T10:24:41;19.65;;;9.18;;
24084;SDS011;12268;52.110;5.548;2023-04-01T10:40:52;11.07;;;6.57;;
24084;SDS011;12268;52.110;5.548;2023-04-01T11:56:16;3.63;;;2.40;;
24084;SDS011;12268;52.110;5.548;2023-04-01T11:59:04;4.20;;;2.72;;
24084;SDS011;12268;52.110;5.548;2023-04-01T12:07:02;5.22;;;3.03;;
24084;SDS011;12268;52.110;5.548;2023-04-01T12:35:13;5.93;;;3.92;;
24084;SDS011;12268;52.110;5.548;2023-04-01T12:40:21;5.38;;;3.33;;
24084;SDS011;12268;52.110;5.548;2023-04-01T12:46:06;7.80;;;5.40;;
24084;SDS011;12268;52.110;5.548;2023-04-01T12:49:00;9.80;;;6.85;;
24084;SDS011;12268;52.110;5.548;2023-04-01T12:51:58;9.55;;;6.47;;
24084;SDS011;12268;52.110;5.548;2023-04-01T13:00:16;11.05;;;6.60;;
24084;SDS011;12268;52.110;5.548;2023-04-01T13:09:01;12.18;;;7.45;;
24084;SDS011;12268;52.110;5.548;2023-04-01T13:28:17;11.30;;;7.03;;
24084;SDS011;12268;52.110;5.548;2023-04-01T13:36:28;10.35;;;6.25;;
24084;SDS011;12268;52.110;5.548;2023-04-01T13:50:17;8.18;;;4.18;;
24084;SDS011;12268;52.110;5.548;2023-04-01T13:53:17;8.82;;;4.68;;
24084;SDS011;12268;52.110;5.548;2023-04-01T14:01:23;10.23;;;5.22;;
24084;SDS011;12268;52.110;5.548;2023-04-01T14:06:53;8.98;;;4.88;;
24084;SDS011;12268;52.110;5.548;2023-04-01T14:09:42;8.73;;;4.95;;
24084;SDS011;12268;52.110;5.548;2023-04-01T14:15:19;10.48;;;5.22;;
24084;SDS011;12268;52.110;5.548;2023-04-01T14:23:40;10.48;;;4.82;;
24084;SDS011;12268;52.110;5.548;2023-04-01T14:26:42;8.57;;;4.13;;
24084;SDS011;12268;52.110;5.548;2023-04-01T14:29:16;8.88;;;5.05;;
24084;SDS011;12268;52.110;5.548;2023-04-01T14:34:59;9.50;;;4.82;;
24084;SDS011;12268;52.110;5.548;2023-04-01T14:40:54;10.70;;;5.25;;
24084;SDS011;12268;52.110;5.548;2023-04-01T14:43:30;10.00;;;5.55;;
24084;SDS011;12268;52.110;5.548;2023-04-01T14:46:23;9.90;;;5.88;;
24084;SDS011;12268;52.110;5.548;2023-04-01T14:49:15;9.07;;;5.38;;
24084;SDS011;12268;52.110;5.548;2023-04-01T14:51:42;10.80;;;5.70;;
24084;SDS011;12268;52.110;5.548;2023-04-01T14:54:13;10.73;;;5.22;;
24084;SDS011;12268;52.110;5.548;2023-04-01T14:56:48;8.20;;;4.63;;
24084;SDS011;12268;52.110;5.548;2023-04-01T15:12:02;9.32;;;5.55;;
24084;SDS011;12268;52.110;5.548;2023-04-01T15:17:27;8.55;;;5.68;;
24084;SDS011;12268;52.110;5.548;2023-04-01T15:25:42;6.60;;;4.63;;
24084;SDS011;12268;52.110;5.548;2023-04-01T15:28:31;8.18;;;5.30;;
24084;SDS011;12268;52.110;5.548;2023-04-01T15:36:40;6.63;;;4.60;;
24084;SDS011;12268;52.110;5.548;2023-04-01T15:39:36;6.75;;;4.90;;
24084;SDS011;12268;52.110;5.548;2023-04-01T15:42:28;8.60;;;5.85;;
24084;SDS011;12268;52.110;5.548;2023-04-01T15:45:14;7.32;;;5.18;;
24084;SDS011;12268;52.110;5.548;2023-04-01T15:50:46;6.72;;;4.47;;
24084;SDS011;12268;52.110;5.548;2023-04-01T15:59:41;7.32;;;4.63;;
24084;SDS011;12268;52.110;5.548;2023-04-01T16:02:30;8.00;;;4.50;;
24084;SDS011;12268;52.110;5.548;2023-04-01T16:10:16;6.88;;;4.68;;
24084;SDS011;12268;52.110;5.548;2023-04-01T16:30:00;7.40;;;4.50;;
24084;SDS011;12268;52.110;5.548;2023-04-01T16:32:57;8.15;;;4.95;;
24084;SDS011;12268;52.110;5.548;2023-04-01T16:38:32;9.38;;;4.97;;
24084;SDS011;12268;52.110;5.548;2023-04-01T16:43:38;9.02;;;5.60;;
24084;SDS011;12268;52.110;5.548;2023-04-01T16:51:46;11.82;;;5.97;;
24084;SDS011;12268;52.110;5.548;2023-04-01T16:54:18;10.55;;;6.35;;
24084;SDS011;12268;52.110;5.548;2023-04-01T16:56:56;11.88;;;5.82;;
24084;SDS011;12268;52.110;5.548;2023-04-01T16:59:37;9.00;;;6.22;;
24084;SDS011;12268;52.110;5.548;2023-04-01T17:04:37;11.00;;;6.90;;
24084;SDS011;12268;52.110;5.548;2023-04-01T17:15:57;10.05;;;6.25;;
24084;SDS011;12268;52.110;5.548;2023-04-01T17:18:38;9.90;;;6.45;;
24084;SDS011;12268;52.110;5.548;2023-04-01T17:30:16;11.35;;;7.53;;
24084;SDS011;12268;52.110;5.548;2023-04-01T17:35:31;13.70;;;5.97;;
24084;SDS011;12268;52.110;5.548;2023-04-01T17:41:25;10.85;;;6.93;;
24084;SDS011;12268;52.110;5.548;2023-04-01T17:54:37;10.00;;;6.72;;
24084;SDS011;12268;52.110;5.548;2023-04-01T17:57:21;11.43;;;7.80;;
24084;SDS011;12268;52.110;5.548;2023-04-01T18:00:00;11.05;;;7.30;;
24084;SDS011;12268;52.110;5.548;2023-04-01T18:08:17;10.40;;;7.07;;
24084;SDS011;12268;52.110;5.548;2023-04-01T18:14:03;9.10;;;5.85;;
24084;SDS011;12268;52.110;5.548;2023-04-01T18:16:58;9.23;;;6.05;;
24084;SDS011;12268;52.110;5.548;2023-04-01T22:31:01;14.73;;;9.40;;
24084;SDS011;12268;52.110;5.548;2023-04-01T22:33:43;18.02;;;9.82;;
24084;SDS011;12268;52.110;5.548;2023-04-01T22:47:57;17.15;;;10.00;;
24084;SDS011;12268;52.110;5.548;2023-04-01T22:50:36;15.57;;;10.40;;
24084;SDS011;12268;52.110;5.548;2023-04-01T22:53:26;17.08;;;11.18;;
24084;SDS011;12268;52.110;5.548;2023-04-01T22:56:03;16.55;;;10.43;;
24084;SDS011;12268;52.110;5.548;2023-04-01T22:58:34;16.23;;;10.02;;
24084;SDS011;12268;52.110;5.548;2023-04-01T23:01:06;16.77;;;10.35;;
24084;SDS011;12268;52.110;5.548;2023-04-01T23:03:43;14.82;;;9.35;;
24084;SDS011;12268;52.110;5.548;2023-04-01T23:06:18;15.82;;;9.90;;
24084;SDS011;12268;52.110;5.548;2023-04-01T23:09:05;17.67;;;11.07;;
24084;SDS011;12268;52.110;5.548;2023-04-01T23:11:42;16.02;;;9.75;;
24084;SDS011;12268;52.110;5.548;2023-04-01T23:16:53;16.30;;;10.70;;
24084;SDS011;12268;52.110;5.548;2023-04-01T23:19:22;17.90;;;10.35;;
24084;SDS011;12268;52.110;5.548;2023-04-01T23:21:53;16.95;;;9.80;;
24084;SDS011;12268;52.110;5.548;2023-04-01T23:24:37;19.95;;;10.90;;
24084;SDS011;12268;52.110;5.548;2023-04-01T23:27:25;19.10;;;11.27;;
24084;SDS011;12268;52.110;5.548;2023-04-01T23:30:00;18.35;;;11.80;;
24084;SDS011;12268;52.110;5.548;2023-04-01T23:32:25;20.92;;;10.80;;
24084;SDS011;12268;52.110;5.548;2023-04-01T23:34:53;22.13;;;11.85;;
24084;SDS011;12268;52.110;5.548;2023-04-01T23:37:23;17.90;;;12.75;;
24084;SDS011;12268;52.110;5.548;2023-04-01T23:39:50;19.25;;;12.07;;
24084;SDS011;12268;52.110;5.548;2023-04-01T23:42:20;18.25;;;11.77;;
24084;SDS011;12268;52.110;5.548;2023-04-01T23:44:56;16.00;;;10.52;;
24084;SDS011;12268;52.110;5.548;2023-04-01T23:47:24;16.13;;;10.25;;
24084;SDS011;12268;52.110;5.548;2023-04-01T23:49:59;15.52;;;10.23;;
24084;SDS011;12268;52.110;5.548;2023-04-01T23:52:36;16.48;;;11.13;;
24084;SDS011;12268;52.110;5.548;2023-04-01T23:57:44;19.20;;;11.32;;
